sensor_id;sensor_type;location;lat;lon;timestamp;pressure;altitude;pressure_sealevel;temperature;humidity
64243;BME280;50573;51.512;5.386;2023-04-06T00:07:08;101526.38;;;3.90;70.19
64243;BME280;50573;51.512;5.386;2023-04-06T00:17:11;101506.59;;;3.76;70.90
64243;BME280;50573;51.512;5.386;2023-04-06T00:27:16;101500.03;;;3.77;71.57
64243;BME280;50573;51.512;5.386;2023-04-06T00:37:19;101494.78;;;3.87;70.98
64243;BME280;50573;51.512;5.386;2023-04-06T00:47:23;101485.19;;;3.90;69.89
64243;BME280;50573;51.512;5.386;2023-04-06T00:57:27;101465.84;;;3.84;70.35
64243;BME280;50573;51.512;5.386;2023-04-06T01:07:33;101468.47;;;3.74;70.36
64243;BME280;50573;51.512;5.386;2023-04-06T01:17:44;101450.72;;;3.73;70.04
64243;BME280;50573;51.512;5.386;2023-04-06T01:27:51;101444.25;;;3.77;70.20
64243;BME280;50573;51.512;5.386;2023-04-06T01:38:04;101443.22;;;3.92;70.79
64243;BME280;50573;51.512;5.386;2023-04-06T01:48:11;101427.94;;;4.03;70.88
64243;BME280;50573;51.512;5.386;2023-04-06T01:58:15;101426.84;;;4.15;70.56
64243;BME280;50573;51.512;5.386;2023-04-06T02:08:20;101409.25;;;4.28;70.07
64243;BME280;50573;51.512;5.386;2023-04-06T02:18:23;101400.47;;;4.38;70.69
64243;BME280;50573;51.512;5.386;2023-04-06T02:28:28;101394.38;;;4.48;70.48
64243;BME280;50573;51.512;5.386;2023-04-06T02:38:31;101388.66;;;4.57;72.35
64243;BME280;50573;51.512;5.386;2023-04-06T02:48:37;101374.09;;;4.75;71.38
64243;BME280;50573;51.512;5.386;2023-04-06T02:58:41;101354.47;;;4.85;70.96
64243;BME280;50573;51.512;5.386;2023-04-06T03:08:45;101359.19;;;5.02;70.15
64243;BME280;50573;51.512;5.386;2023-04-06T03:18:49;101348.38;;;5.09;70.49
64243;BME280;50573;51.512;5.386;2023-04-06T03:28:54;101341.09;;;5.13;69.62
64243;BME280;50573;51.512;5.386;2023-04-06T03:39:02;101334.91;;;5.16;69.66
64243;BME280;50573;51.512;5.386;2023-04-06T03:49:10;101330.69;;;5.26;69.64
64243;BME280;50573;51.512;5.386;2023-04-06T03:59:16;101336.47;;;5.24;68.67
64243;BME280;50573;51.512;5.386;2023-04-06T04:09:21;101328.34;;;5.17;68.53
64243;BME280;50573;51.512;5.386;2023-04-06T04:19:24;101329.91;;;5.15;69.33
64243;BME280;50573;51.512;5.386;2023-04-06T04:29:30;101328.38;;;5.14;69.73
64243;BME280;50573;51.512;5.386;2023-04-06T04:39:38;101324.50;;;5.15;68.92
64243;BME280;50573;51.512;5.386;2023-04-06T04:49:42;101305.22;;;5.16;69.56
64243;BME280;50573;51.512;5.386;2023-04-06T04:59:50;101307.56;;;5.25;69.08
64243;BME280;50573;51.512;5.386;2023-04-06T05:09:55;101308.31;;;5.32;69.23
64243;BME280;50573;51.512;5.386;2023-04-06T05:20:01;101305.63;;;5.36;69.03
64243;BME280;50573;51.512;5.386;2023-04-06T05:30:11;101315.69;;;5.46;68.18
64243;BME280;50573;51.512;5.386;2023-04-06T05:40:18;101314.13;;;5.62;67.90
64243;BME280;50573;51.512;5.386;2023-04-06T05:50:23;101323.03;;;5.66;67.30
64243;BME280;50573;51.512;5.386;2023-04-06T06:00:26;101303.75;;;5.93;66.45
64243;BME280;50573;51.512;5.386;2023-04-06T06:10:39;101317.25;;;6.00;66.45
64243;BME280;50573;51.512;5.386;2023-04-06T06:20:45;101321.84;;;6.24;67.10
64243;BME280;50573;51.512;5.386;2023-04-06T06:30:51;101315.63;;;6.37;65.15
64243;BME280;50573;51.512;5.386;2023-04-06T06:40:57;101319.50;;;6.40;66.34
64243;BME280;50573;51.512;5.386;2023-04-06T06:51:05;101309.72;;;6.67;65.88
64243;BME280;50573;51.512;5.386;2023-04-06T07:01:08;101309.72;;;6.74;65.43
64243;BME280;50573;51.512;5.386;2023-04-06T07:11:14;101306.59;;;6.79;65.64
64243;BME280;50573;51.512;5.386;2023-04-06T07:21:17;101305.69;;;7.03;65.26
64243;BME280;50573;51.512;5.386;2023-04-06T07:31:22;101311.38;;;7.26;66.07
64243;BME280;50573;51.512;5.386;2023-04-06T07:41:25;101306.09;;;7.60;65.18
64243;BME280;50573;51.512;5.386;2023-04-06T07:51:29;101306.97;;;7.46;65.02
64243;BME280;50573;51.512;5.386;2023-04-06T08:01:33;101311.50;;;7.63;64.84
64243;BME280;50573;51.512;5.386;2023-04-06T08:11:37;101313.44;;;8.07;63.86
64243;BME280;50573;51.512;5.386;2023-04-06T08:21:41;101307.50;;;8.19;63.62
64243;BME280;50573;51.512;5.386;2023-04-06T08:31:45;101310.78;;;8.40;63.94
64243;BME280;50573;51.512;5.386;2023-04-06T08:41:49;101314.47;;;8.57;64.02
64243;BME280;50573;51.512;5.386;2023-04-06T08:51:55;101318.50;;;8.76;64.55
64243;BME280;50573;51.512;5.386;2023-04-06T09:02:00;101318.88;;;9.08;64.77
64243;BME280;50573;51.512;5.386;2023-04-06T09:12:08;101328.66;;;9.55;65.29
64243;BME280;50573;51.512;5.386;2023-04-06T09:22:14;101330.09;;;9.63;68.32
64243;BME280;50573;51.512;5.386;2023-04-06T09:32:18;101323.13;;;9.62;70.90
64243;BME280;50573;51.512;5.386;2023-04-06T09:42:25;101315.94;;;9.75;71.18
64243;BME280;50573;51.512;5.386;2023-04-06T09:52:32;101318.22;;;9.76;72.82
64243;BME280;50573;51.512;5.386;2023-04-06T10:02:44;101321.75;;;9.50;77.27
64243;BME280;50573;51.512;5.386;2023-04-06T10:12:50;101315.06;;;9.32;81.79
64243;BME280;50573;51.512;5.386;2023-04-06T10:22:55;101320.53;;;9.28;84.13
64243;BME280;50573;51.512;5.386;2023-04-06T10:33:13;101318.88;;;9.08;85.99
64243;BME280;50573;51.512;5.386;2023-04-06T10:43:19;101322.06;;;9.03;90.54
64243;BME280;50573;51.512;5.386;2023-04-06T10:53:25;101301.28;;;8.89;92.63
64243;BME280;50573;51.512;5.386;2023-04-06T11:03:29;101297.34;;;8.94;93.81
64243;BME280;50573;51.512;5.386;2023-04-06T11:13:39;101288.78;;;8.95;93.77
64243;BME280;50573;51.512;5.386;2023-04-06T11:23:43;101284.03;;;9.03;96.63
64243;BME280;50573;51.512;5.386;2023-04-06T11:33:55;101266.22;;;9.25;98.81
64243;BME280;50573;51.512;5.386;2023-04-06T11:44:00;101263.63;;;9.41;96.84
64243;BME280;50573;51.512;5.386;2023-04-06T11:54:05;101249.16;;;9.70;97.96
64243;BME280;50573;51.512;5.386;2023-04-06T12:04:08;101240.09;;;9.31;97.15
64243;BME280;50573;51.512;5.386;2023-04-06T12:14:13;101230.47;;;9.26;98.21
64243;BME280;50573;51.512;5.386;2023-04-06T12:24:16;101230.38;;;9.33;97.01
64243;BME280;50573;51.512;5.386;2023-04-06T12:34:21;101230.56;;;9.19;97.02
64243;BME280;50573;51.512;5.386;2023-04-06T12:44:24;101228.13;;;9.02;100.00
64243;BME280;50573;51.512;5.386;2023-04-06T12:54:29;101195.28;;;8.93;100.00
64243;BME280;50573;51.512;5.386;2023-04-06T13:04:32;101201.63;;;8.83;100.00
64243;BME280;50573;51.512;5.386;2023-04-06T13:14:37;101188.09;;;8.79;100.00
64243;BME280;50573;51.512;5.386;2023-04-06T13:24:40;101183.00;;;8.55;100.00
64243;BME280;50573;51.512;5.386;2023-04-06T13:34:45;101171.28;;;8.88;100.00
64243;BME280;50573;51.512;5.386;2023-04-06T13:44:50;101157.88;;;8.51;100.00
64243;BME280;50573;51.512;5.386;2023-04-06T13:54:55;101150.78;;;8.57;100.00
64243;BME280;50573;51.512;5.386;2023-04-06T14:04:58;101145.63;;;8.39;100.00
64243;BME280;50573;51.512;5.386;2023-04-06T14:15:04;101142.84;;;8.43;100.00
64243;BME280;50573;51.512;5.386;2023-04-06T14:25:08;101130.66;;;8.27;100.00
64243;BME280;50573;51.512;5.386;2023-04-06T14:35:12;101118.56;;;8.32;100.00
64243;BME280;50573;51.512;5.386;2023-04-06T14:45:16;101129.28;;;8.43;100.00
64243;BME280;50573;51.512;5.386;2023-04-06T14:55:22;101113.94;;;8.29;100.00
64243;BME280;50573;51.512;5.386;2023-04-06T15:05:25;101102.78;;;8.23;100.00
64243;BME280;50573;51.512;5.386;2023-04-06T15:15:30;101090.59;;;8.35;100.00
64243;BME280;50573;51.512;5.386;2023-04-06T15:25:33;101095.16;;;8.41;100.00
64243;BME280;50573;51.512;5.386;2023-04-06T15:35:37;101083.28;;;8.59;100.00
64243;BME280;50573;51.512;5.386;2023-04-06T15:45:41;101081.56;;;8.68;100.00
64243;BME280;50573;51.512;5.386;2023-04-06T15:55:45;101067.59;;;8.70;100.00
64243;BME280;50573;51.512;5.386;2023-04-06T16:05:49;101065.38;;;8.61;100.00
64243;BME280;50573;51.512;5.386;2023-04-06T16:16:10;101063.91;;;8.57;100.00
64243;BME280;50573;51.512;5.386;2023-04-06T16:26:14;101051.41;;;8.63;100.00
64243;BME280;50573;51.512;5.386;2023-04-06T16:36:23;101055.66;;;8.64;100.00
64243;BME280;50573;51.512;5.386;2023-04-06T16:46:28;101055.81;;;8.53;100.00
64243;BME280;50573;51.512;5.386;2023-04-06T16:56:34;101039.50;;;8.80;100.00
64243;BME280;50573;51.512;5.386;2023-04-06T17:06:37;101028.19;;;8.58;100.00
64243;BME280;50573;51.512;5.386;2023-04-06T17:16:41;101025.53;;;8.78;100.00
64243;BME280;50573;51.512;5.386;2023-04-06T17:26:44;101022.72;;;8.62;100.00
64243;BME280;50573;51.512;5.386;2023-04-06T17:36:49;101027.25;;;8.91;100.00
64243;BME280;50573;51.512;5.386;2023-04-06T17:46:54;101028.25;;;8.78;100.00
64243;BME280;50573;51.512;5.386;2023-04-06T17:56:58;101035.47;;;8.88;100.00
64243;BME280;50573;51.512;5.386;2023-04-06T18:07:02;101027.78;;;8.83;100.00
64243;BME280;50573;51.512;5.386;2023-04-06T18:17:07;101038.53;;;8.90;100.00
64243;BME280;50573;51.512;5.386;2023-04-06T18:27:11;101047.03;;;8.92;100.00
64243;BME280;50573;51.512;5.386;2023-04-06T18:37:15;101032.28;;;8.93;100.00
64243;BME280;50573;51.512;5.386;2023-04-06T18:47:18;101044.91;;;9.03;100.00
64243;BME280;50573;51.512;5.386;2023-04-06T18:57:23;101045.66;;;9.03;100.00
64243;BME280;50573;51.512;5.386;2023-04-06T19:07:26;101042.19;;;9.03;100.00
64243;BME280;50573;51.512;5.386;2023-04-06T19:17:31;101045.84;;;9.16;100.00
64243;BME280;50573;51.512;5.386;2023-04-06T19:27:34;101054.88;;;9.09;100.00
64243;BME280;50573;51.512;5.386;2023-04-06T19:37:38;101058.38;;;9.29;100.00
64243;BME280;50573;51.512;5.386;2023-04-06T19:47:41;101062.41;;;9.21;100.00
64243;BME280;50573;51.512;5.386;2023-04-06T19:57:46;101077.56;;;9.42;100.00
64243;BME280;50573;51.512;5.386;2023-04-06T20:07:49;101077.22;;;9.40;100.00
64243;BME280;50573;51.512;5.386;2023-04-06T20:17:54;101077.22;;;9.40;100.00
64243;BME280;50573;51.512;5.386;2023-04-06T20:27:59;101075.25;;;9.40;100.00
64243;BME280;50573;51.512;5.386;2023-04-06T20:38:04;101087.75;;;9.57;100.00
64243;BME280;50573;51.512;5.386;2023-04-06T20:48:07;101089.94;;;9.66;100.00
64243;BME280;50573;51.512;5.386;2023-04-06T20:58:14;101092.13;;;9.71;100.00
64243;BME280;50573;51.512;5.386;2023-04-06T21:08:17;101100.31;;;9.71;100.00
64243;BME280;50573;51.512;5.386;2023-04-06T21:18:21;101096.97;;;9.63;100.00
64243;BME280;50573;51.512;5.386;2023-04-06T21:28:25;101096.28;;;9.59;100.00
64243;BME280;50573;51.512;5.386;2023-04-06T21:38:30;101093.25;;;9.54;100.00
64243;BME280;50573;51.512;5.386;2023-04-06T21:48:33;101094.66;;;9.62;100.00
64243;BME280;50573;51.512;5.386;2023-04-06T21:58:37;101097.81;;;9.60;100.00
64243;BME280;50573;51.512;5.386;2023-04-06T22:08:40;101105.66;;;9.55;100.00
64243;BME280;50573;51.512;5.386;2023-04-06T22:18:45;101111.09;;;9.55;100.00
64243;BME280;50573;51.512;5.386;2023-04-06T22:28:48;101108.47;;;9.51;100.00
64243;BME280;50573;51.512;5.386;2023-04-06T22:38:52;101119.19;;;9.39;100.00
64243;BME280;50573;51.512;5.386;2023-04-06T22:48:55;101130.19;;;9.32;100.00
64243;BME280;50573;51.512;5.386;2023-04-06T22:59:00;101122.16;;;9.25;100.00
64243;BME280;50573;51.512;5.386;2023-04-06T23:09:03;101140.53;;;9.17;100.00
64243;BME280;50573;51.512;5.386;2023-04-06T23:19:07;101147.75;;;9.04;100.00
64243;BME280;50573;51.512;5.386;2023-04-06T23:29:10;101155.19;;;9.00;100.00
64243;BME280;50573;51.512;5.386;2023-04-06T23:39:15;101151.88;;;8.89;100.00
64243;BME280;50573;51.512;5.386;2023-04-06T23:49:18;101161.84;;;8.96;100.00
64243;BME280;50573;51.512;5.386;2023-04-06T23:59:22;101162.97;;;8.98;100.00
